Time;durP1;ratioP1;P1;durP2;ratioP2;P2;SDS_P1;SDS_P2;PMS_P1;PMS_P2;Temp;Humidity;BMP_temperature;BMP_pressure;BME280_temperature;BME280_humidity;BME280_pressure;Samples;Min_cycle;Max_cycle;Signal;HPM_P1;HPM_P2
2023/10/02 00:02:45;;;;;;;14.82;4.88;;;;;;;14.50;86.92;99551.22;10326954;28;20713;-81
2023/10/02 00:07:49;;;;;;;7.93;4.95;;;;;;;14.87;86.37;99636.22;10341016;28;20053;-82
2023/10/02 00:13:13;;;;;;;8.35;5.07;;;;;;;15.68;89.06;99777.44;10326211;28;20074;-81
2023/10/02 00:18:18;;;;;;;13.82;5.10;;;;;;;14.68;87.29;99638.78;10308656;28;20050;-81
2023/10/02 00:23:30;;;;;;;8.23;4.82;;;;;;;15.04;87.45;99714.94;10326124;28;20046;-81
2023/10/02 00:28:42;;;;;;;8.32;4.90;;;;;;;14.69;89.36;99690.38;10330620;28;20046;-82
2023/10/02 00:33:50;;;;;;;9.52;5.63;;;;;;;14.36;89.09;99657.34;10333161;28;20034;-82
2023/10/02 00:39:24;;;;;;;9.60;5.65;;;;;;;14.98;88.91;99754.03;10314746;28;20506;-82
2023/10/02 00:50:49;;;;;;;9.95;5.50;;;;;;;14.09;89.86;99610.34;10374901;28;20080;-82
2023/10/02 00:55:59;;;;;;;;;;;;;;;;;;;;;
2023/10/02 01:01:11;;;;;;;9.23;5.28;;;;;;;14.80;91.30;99709.25;10331912;28;20529;-82
2023/10/02 01:06:16;;;;;;;11.23;5.93;;;;;;;14.60;89.11;99652.38;10331451;28;20113;-81
2023/10/02 01:11:34;;;;;;;15.02;5.80;;;;;;;14.32;90.80;99612.56;10330764;28;20081;-82
2023/10/02 01:16:50;;;;;;;14.02;5.93;;;;;;;14.09;89.20;99576.47;10314003;28;20048;-82
2023/10/02 01:22:05;;;;;;;9.68;5.85;;;;;;;14.68;90.33;99676.19;10331325;28;20099;-82
2023/10/02 01:27:09;;;;;;;7.97;5.82;;;;;;;14.87;89.67;99711.09;10330441;28;20413;-81
2023/10/02 01:32:19;;;;;;;9.95;6.38;;;;;;;15.49;90.64;99811.28;10330291;28;20045;-82
2023/10/02 01:37:35;;;;;;;11.30;6.20;;;;;;;15.17;90.09;99759.56;10330357;28;20077;-82
2023/10/02 01:42:40;;;;;;;11.70;6.97;;;;;;;14.81;91.20;99694.88;10330708;28;20538;-81
2023/10/02 01:48:40;;;;;;;12.15;6.63;;;;;;;14.82;92.84;99703.72;10329979;28;20081;-82
2023/10/02 01:53:41;;;;;;;11.43;6.25;;;;;;;14.22;91.83;99613.00;10328748;28;20047;-82
2023/10/02 01:59:09;;;;;;;12.13;7.03;;;;;;;14.71;91.60;99707.03;10329587;28;20042;-82
2023/10/02 02:04:23;;;;;;;25.35;6.97;;;;;;;14.30;91.86;99636.00;10330118;28;20401;-81
2023/10/02 02:15:17;;;;;;;;;;;;;;;;;;;;;
2023/10/02 02:20:43;;;;;;;;;;;;;;;15.68;95.68;99839.03;10330126;28;20045;-82
2023/10/02 02:26:31;;;;;;;12.27;7.07;;;;;;;15.34;98.71;99806.19;10314944;23;19980;-83
2023/10/02 02:32:17;;;;;;;10.57;8.02;;;;;;;13.89;99.96;99581.84;10249451;28;20043;-82
2023/10/02 02:37:28;;;;;;;14.30;9.30;;;;;;;13.90;96.37;99596.00;10246686;29;20422;-82
2023/10/02 02:48:49;;;;;;;20.60;10.90;;;;;;;14.20;97.70;99652.44;10212039;29;20067;-81
2023/10/02 02:53:53;;;;;;;18.40;12.65;;;;;;;14.35;98.63;99694.97;10247800;28;20039;-87
2023/10/02 02:58:58;;;;;;;21.42;14.35;;;;;;;15.11;99.49;99814.72;10247916;28;20065;-87
2023/10/02 03:04:11;;;;;;;26.48;16.33;;;;;;;15.11;100.00;99825.44;10247290;28;20051;-87
2023/10/02 03:09:23;;;;;;;19.92;16.10;;;;;;;15.13;100.00;99815.31;10246668;29;20043;-86
2023/10/02 03:14:24;;;;;;;28.02;17.60;;;;;;;14.80;100.00;99765.41;10247066;28;20124;-86
2023/10/02 03:19:25;;;;;;;26.20;18.05;;;;;;;14.83;100.00;99754.28;10247568;28;20043;-86
2023/10/02 03:24:26;;;;;;;32.63;17.00;;;;;;;15.15;100.00;99797.22;10247409;28;20117;-86
2023/10/02 03:29:30;;;;;;;21.40;17.13;;;;;;;15.48;100.00;99839.06;10243542;29;20096;-86
2023/10/02 03:34:38;;;;;;;22.52;17.00;;;;;;;15.55;100.00;99842.53;10246907;28;20043;-79
2023/10/02 03:39:59;;;;;;;24.65;16.13;;;;;;;15.43;100.00;99817.47;10246659;29;20093;-74
2023/10/02 03:45:04;;;;;;;26.58;16.60;;;;;;;15.71;99.98;99866.19;10247354;29;20463;-72
2023/10/02 03:50:12;;;;;;;24.65;19.17;;;;;;;15.68;99.84;99860.47;10246924;28;20092;-79
2023/10/02 03:55:15;;;;;;;26.90;18.42;;;;;;;15.61;99.89;99824.81;10245526;28;20531;-71
2023/10/02 04:00:22;;;;;;;23.90;14.98;;;;;;;15.80;99.50;99837.31;10245306;28;20130;-84
2023/10/02 04:10:55;;;;;;;14.63;12.75;;;;;;;16.30;98.96;99863.38;10246169;29;20049;-92
2023/10/02 04:16:41;;;;;;;21.35;12.27;;;;;;;16.50;97.91;99855.19;10246772;28;20051;-87
2023/10/02 04:21:25;;;;;;;16.05;11.20;;;;;;;16.79;96.86;99859.91;10245587;28;20055;-81
2023/10/02 04:26:28;;;;;;;18.02;9.95;;;;;;;16.71;95.75;99808.38;10245825;28;20059;-80
2023/10/02 04:31:30;;;;;;;13.00;9.60;;;;;;;17.49;94.12;99851.53;10245071;28;20050;-77
2023/10/02 04:36:34;;;;;;;18.65;9.10;;;;;;;17.80;91.91;99812.13;10243723;29;20043;-81
2023/10/02 04:42:05;;;;;;;17.20;8.85;;;;;;;17.94;90.64;99778.63;10244433;28;20160;-78
2023/10/02 04:47:00;;;;;;;13.52;8.15;;;;;;;18.28;90.36;99831.88;10244300;29;20117;-85
2023/10/02 04:52:04;;;;;;;8.88;6.85;;;;;;;17.70;90.69;99763.47;10245585;28;20035;-84
2023/10/02 04:57:14;;;;;;;10.20;7.53;;;;;;;17.90;91.15;99827.69;10244558;28;20043;-81
2023/10/02 05:02:21;;;;;;;14.10;6.93;;;;;;;17.88;91.29;99835.97;10244302;28;20411;-84
2023/10/02 05:07:21;;;;;;;10.52;7.22;;;;;;;17.47;91.00;99774.91;10244507;29;20035;-84
2023/10/02 05:12:22;;;;;;;15.98;7.18;;;;;;;17.34;91.31;99779.41;10245233;28;20031;-83
2023/10/02 05:17:46;;;;;;;14.25;6.75;;;;;;;17.44;91.30;99799.53;10250679;28;20046;-85
2023/10/02 05:22:58;;;;;;;9.68;6.57;;;;;;;17.55;91.16;99821.06;10250438;29;20043;-87
2023/10/02 05:27:59;;;;;;;12.38;6.90;;;;;;;17.77;90.93;99851.00;10251014;29;20145;-85
2023/10/02 05:32:59;;;;;;;19.58;7.57;;;;;;;17.84;90.58;99866.22;10250792;28;20437;-84
2023/10/02 05:38:00;;;;;;;11.68;7.10;;;;;;;17.58;90.78;99822.50;10250674;28;20074;-83
2023/10/02 05:43:10;;;;;;;19.77;7.45;;;;;;;17.81;91.14;99853.25;10250319;28;20039;-85
2023/10/02 05:53:34;;;;;;;11.15;6.65;;;;;;;18.00;90.77;99865.56;10249487;28;20047;-83
2023/10/02 05:58:36;;;;;;;15.13;5.80;;;;;;;17.56;90.32;99778.97;10248626;29;20047;-84
2023/10/02 06:03:37;;;;;;;16.40;5.93;;;;;;;18.25;89.86;99862.75;10249739;28;20498;-84
2023/10/02 06:08:41;;;;;;;11.65;5.35;;;;;;;18.12;89.28;99811.84;10250426;28;20181;-83
2023/10/02 06:13:44;;;;;;;12.82;5.65;;;;;;;17.95;88.40;99761.47;10249266;28;20071;-81
2023/10/02 06:18:45;;;;;;;11.43;4.88;;;;;;;18.92;87.51;99874.06;10248642;28;20047;-84
2023/10/02 06:23:46;;;;;;;12.85;5.15;;;;;;;19.14;86.57;99858.16;10249544;28;20066;-80
2023/10/02 06:29:13;;;;;;;13.48;4.97;;;;;;;19.15;85.88;99830.16;10249285;28;20060;-83
2023/10/02 06:34:11;;;;;;;14.55;5.32;;;;;;;19.50;84.66;99842.72;10247928;29;20560;-83
2023/10/02 06:39:21;;;;;;;11.80;4.90;;;;;;;19.73;83.55;99817.59;10248616;28;20415;-83
2023/10/02 06:44:21;;;;;;;14.52;4.57;;;;;;;19.79;82.45;99775.41;10248200;28;20579;-82
2023/10/02 06:49:23;;;;;;;11.80;4.95;;;;;;;20.50;81.50;99835.13;10247609;28;20134;-84
2023/10/02 06:54:23;;;;;;;9.98;4.63;;;;;;;20.71;80.11;99839.78;10248653;28;20031;-82
2023/10/02 06:59:24;;;;;;;15.30;4.70;;;;;;;20.74;79.61;99835.78;10247939;28;20046;-84
2023/10/02 07:04:30;;;;;;;18.70;4.43;;;;;;;20.91;79.11;99847.38;10247940;28;20435;-81
2023/10/02 07:09:37;;;;;;;15.32;3.95;;;;;;;21.03;78.05;99851.84;10247379;29;20442;-80
2023/10/02 07:14:38;;;;;;;14.20;4.53;;;;;;;21.04;78.15;99850.78;10248119;29;20047;-82
2023/10/02 07:19:39;;;;;;;10.60;4.40;;;;;;;20.96;77.81;99833.94;10247292;28;20043;-83
2023/10/02 07:24:40;;;;;;;14.88;4.07;;;;;;;20.71;77.60;99791.22;10246877;28;20142;-84
2023/10/02 07:29:42;;;;;;;16.58;4.10;;;;;;;20.92;77.75;99832.81;10246274;29;20039;-82
2023/10/02 07:34:45;;;;;;;10.70;4.00;;;;;;;20.76;77.76;99790.47;10246756;28;20059;-83
2023/10/02 07:39:48;;;;;;;10.43;4.13;;;;;;;20.81;77.82;99795.94;10246260;28;20086;-80
2023/10/02 07:44:49;;;;;;;19.35;4.85;;;;;;;21.13;77.21;99806.09;10246164;29;20087;-82
2023/10/02 07:49:58;;;;;;;17.15;4.80;;;;;;;21.45;76.25;99835.97;10245834;28;20043;-83
2023/10/02 07:54:59;;;;;;;9.07;3.95;;;;;;;21.59;75.53;99820.16;10246416;28;20134;-81
2023/10/02 08:00:06;;;;;;;12.25;3.97;;;;;;;21.88;74.62;99821.56;10246976;28;20522;-81
2023/10/02 08:05:09;;;;;;;9.80;4.22;;;;;;;21.70;74.33;99751.63;10246077;28;20051;-81
2023/10/02 08:10:10;;;;;;;15.18;4.63;;;;;;;22.04;73.63;99800.06;10245438;28;20043;-82
2023/10/02 08:15:26;;;;;;;17.10;5.43;;;;;;;21.83;73.76;99802.56;10245266;28;20093;-81
2023/10/02 08:20:37;;;;;;;46.97;20.30;;;;;;;21.59;73.88;99787.72;10245133;29;20058;-82
2023/10/02 08:25:38;;;;;;;148.80;96.55;;;;;;;21.55;74.33;99806.34;10244206;29;20067;-80
2023/10/02 08:30:39;;;;;;;17.02;11.57;;;;;;;21.40;73.86;99806.97;10245174;28;20494;-80
2023/10/02 08:35:46;;;;;;;21.55;6.68;;;;;;;21.28;74.16;99814.38;10245017;28;20414;-81
2023/10/02 08:40:55;;;;;;;31.50;21.75;;;;;;;21.09;74.11;99799.53;10245781;29;20406;-80
2023/10/02 08:45:59;;;;;;;24.33;10.05;;;;;;;20.91;74.36;99812.28;10244477;28;20043;-83
2023/10/02 08:51:00;;;;;;;20.20;7.15;;;;;;;20.91;74.85;99835.75;10251162;28;20049;-85
2023/10/02 08:56:01;;;;;;;18.30;6.03;;;;;;;20.78;75.02;99819.91;10252383;28;20097;-81
2023/10/02 09:06:31;;;;;;;84.15;52.72;;;;;;;20.86;76.46;99827.59;10251513;28;20043;-81
2023/10/02 09:11:35;;;;;;;44.58;21.23;;;;;;;20.82;75.88;99815.63;10250896;28;20074;-81
2023/10/02 09:16:37;;;;;;;18.23;6.80;;;;;;;20.94;76.25;99832.56;10249993;29;20407;-81
2023/10/02 09:21:46;;;;;;;13.45;4.65;;;;;;;20.85;76.56;99829.47;10251090;28;20499;-82
2023/10/02 09:26:47;;;;;;;30.98;14.98;;;;;;;20.84;77.59;99818.91;10250854;28;20055;-81
2023/10/02 09:31:49;;;;;;;109.35;48.80;;;;;;;20.81;78.42;99830.22;10251044;28;20144;-81
2023/10/02 09:36:53;;;;;;;27.60;10.35;;;;;;;20.73;79.23;99799.88;10250068;29;20050;-82
2023/10/02 09:42:10;;;;;;;22.55;11.30;;;;;;;20.99;81.33;99813.72;10249150;29;20039;-83
2023/10/02 09:47:11;;;;;;;13.00;5.63;;;;;;;20.38;79.59;99715.69;10249204;29;20042;-82
2023/10/02 09:52:16;;;;;;;23.92;4.90;;;;;;;21.03;79.65;99816.72;10250614;29;20051;-81
2023/10/02 09:57:25;;;;;;;20.55;7.00;;;;;;;21.00;79.41;99811.84;10248722;29;20043;-82
2023/10/02 10:07:51;;;;;;;16.83;6.45;;;;;;;21.02;78.99;99807.00;10250043;28;20035;-81
2023/10/02 10:13:09;;;;;;;379.88;144.48;;;;;;;20.80;78.25;99783.50;10249229;28;20509;-81
2023/10/02 10:18:13;;;;;;;122.78;47.40;;;;;;;20.87;78.86;99794.94;10247621;29;20054;-81
2023/10/02 10:23:39;;;;;;;114.53;42.78;;;;;;;20.72;79.00;99775.81;10248917;29;20046;-81
2023/10/02 10:28:53;;;;;;;317.15;145.02;;;;;;;20.80;77.57;99799.69;10249412;28;20411;-80
2023/10/02 10:33:56;;;;;;;54.28;25.02;;;;;;;20.49;76.97;99791.13;10248984;28;20047;-81
2023/10/02 10:38:57;;;;;;;402.37;147.63;;;;;;;20.33;77.23;99780.34;10248905;28;20129;-80
2023/10/02 10:43:59;;;;;;;138.27;51.25;;;;;;;20.38;79.77;99815.50;10247681;28;20130;-80
2023/10/02 10:49:10;;;;;;;317.83;109.88;;;;;;;20.29;81.42;99802.41;10248401;28;20422;-79
2023/10/02 10:54:13;;;;;;;227.88;74.25;;;;;;;20.19;83.60;99806.81;10248193;28;20039;-79
2023/10/02 10:59:24;;;;;;;37.95;19.88;;;;;;;20.13;88.49;99808.59;10248009;28;20414;-80
2023/10/02 11:04:27;;;;;;;41.83;14.88;;;;;;;19.67;88.48;99766.56;10248496;28;20437;-81
2023/10/02 11:09:27;;;;;;;25.55;8.23;;;;;;;19.85;90.92;99814.84;10247285;28;20039;-80
2023/10/02 11:14:35;;;;;;;21.90;7.43;;;;;;;19.82;98.68;99826.13;10247395;28;20050;-81
2023/10/02 11:19:46;;;;;;;19.52;7.90;;;;;;;19.80;98.42;99814.75;10246918;28;20396;-80
2023/10/02 11:25:24;;;;;;;35.88;12.35;;;;;;;19.78;100.00;99812.31;10247235;28;20059;-80
2023/10/02 11:30:31;;;;;;;15.77;8.10;;;;;;;19.65;97.19;99785.66;10246553;28;20582;-80
2023/10/02 11:35:40;;;;;;;21.05;8.13;;;;;;;19.82;98.07;99805.38;10246324;28;20043;-80
2023/10/02 11:40:43;;;;;;;24.52;7.78;;;;;;;19.83;98.76;99793.56;10246723;28;20035;-80
2023/10/02 11:45:46;;;;;;;10.65;7.05;;;;;;;19.85;99.54;99796.00;10246257;28;20043;-80
2023/10/02 11:50:50;;;;;;;23.27;7.75;;;;;;;19.41;100.00;99724.81;10246491;28;20085;-80
2023/10/02 11:55:51;;;;;;;18.90;7.50;;;;;;;19.80;100.00;99777.03;10246775;28;20089;-81
2023/10/02 12:00:53;;;;;;;25.70;7.53;;;;;;;19.84;100.00;99788.97;10246235;28;20126;-81
2023/10/02 12:05:54;;;;;;;27.63;7.57;;;;;;;19.79;100.00;99787.00;10245684;28;20047;-80
2023/10/02 12:10:55;;;;;;;23.88;7.90;;;;;;;19.82;100.00;99783.81;10246529;28;20047;-80
2023/10/02 12:15:56;;;;;;;28.83;8.15;;;;;;;19.48;100.00;99734.41;10245629;29;20539;-80
2023/10/02 12:20:57;;;;;;;24.95;7.72;;;;;;;19.77;100.00;99781.06;10246205;28;20093;-80
2023/10/02 12:25:59;;;;;;;36.15;10.27;;;;;;;19.65;100.00;99782.94;10252035;28;20061;-80
2023/10/02 12:31:06;;;;;;;43.45;21.63;;;;;;;19.61;100.00;99779.91;10253344;28;20039;-81
2023/10/02 12:36:17;;;;;;;46.30;27.88;;;;;;;19.47;100.00;99765.06;10253391;28;20116;-77
2023/10/02 12:41:20;;;;;;;31.67;16.13;;;;;;;19.36;100.00;99758.69;10251758;28;20043;-77
2023/10/02 12:46:22;;;;;;;31.40;12.10;;;;;;;19.50;100.00;99793.41;10251332;28;20127;-77
2023/10/02 12:51:28;;;;;;;23.38;8.05;;;;;;;19.10;100.00;99741.22;10250797;28;20123;-77
2023/10/02 12:56:30;;;;;;;19.45;7.40;;;;;;;19.06;100.00;99740.06;10250892;28;20051;-77
2023/10/02 13:01:30;;;;;;;33.95;8.52;;;;;;;19.06;100.00;99750.81;10249278;28;20089;-77
2023/10/02 13:06:31;;;;;;;14.50;8.55;;;;;;;18.97;100.00;99740.69;10249062;28;20085;-77
2023/10/02 13:11:32;;;;;;;17.73;10.77;;;;;;;19.31;100.00;99809.75;10251001;28;20513;-76
2023/10/02 13:16:36;;;;;;;25.98;11.73;;;;;;;19.13;100.00;99788.38;10251222;28;20074;-76
2023/10/02 13:21:40;;;;;;;;;;;;;;;19.41;100.00;99817.22;10251691;28;20047;-76
2023/10/02 13:26:42;;;;;;;18.05;12.48;;;;;;;19.20;100.00;99809.78;10250419;28;19930;-77
2023/10/02 13:31:46;;;;;;;31.73;14.27;;;;;;;18.97;100.00;99776.47;10250673;28;20054;-77
2023/10/02 13:36:47;;;;;;;25.52;11.48;;;;;;;19.18;100.00;99811.91;10250437;28;20050;-76
2023/10/02 13:41:48;;;;;;;32.17;13.18;;;;;;;19.12;100.00;99800.22;10249855;28;20044;-76
2023/10/02 13:46:51;;;;;;;29.30;13.40;;;;;;;18.57;100.00;99709.94;10250133;28;20410;-76
2023/10/02 13:51:52;;;;;;;24.40;13.13;;;;;;;18.75;100.00;99746.66;10250344;28;20074;-76
2023/10/02 13:56:52;;;;;;;22.50;13.88;;;;;;;18.56;100.00;99729.81;10250354;28;20086;-76
2023/10/02 14:01:53;;;;;;;21.48;13.35;;;;;;;18.85;100.00;99786.44;10249845;28;20046;-77
2023/10/02 14:06:54;;;;;;;23.17;13.57;;;;;;;19.06;100.00;99826.22;10249696;29;20407;-77
2023/10/02 14:11:54;;;;;;;25.40;13.05;;;;;;;19.10;100.00;99832.75;10249176;28;20388;-77
2023/10/02 14:16:55;;;;;;;24.35;12.98;;;;;;;18.72;100.00;99765.94;10249050;28;20427;-76
2023/10/02 14:21:56;;;;;;;33.17;16.02;;;;;;;18.66;100.00;99767.69;10248642;28;20081;-77
2023/10/02 14:26:57;;;;;;;35.30;16.13;;;;;;;18.78;100.00;99783.03;10249137;29;20117;-77
2023/10/02 14:31:57;;;;;;;34.78;16.80;;;;;;;18.80;100.00;99800.59;10245824;29;20051;-76
2023/10/02 14:36:59;;;;;;;42.05;20.85;;;;;;;18.95;100.00;99843.19;10246879;28;20061;-76
2023/10/02 14:42:04;;;;;;;52.97;27.27;;;;;;;18.85;100.00;99818.75;10247181;28;20054;-76
2023/10/02 14:47:04;;;;;;;46.85;24.25;;;;;;;18.93;100.00;99840.75;10243491;28;20047;-77
2023/10/02 14:52:05;;;;;;;45.83;23.08;;;;;;;18.88;100.00;99835.22;10237656;28;20044;-78
2023/10/02 14:57:08;;;;;;;53.30;27.08;;;;;;;18.46;100.00;99783.38;10226996;28;20051;-79
2023/10/02 15:02:10;;;;;;;47.70;24.53;;;;;;;18.49;100.00;99791.00;10234627;28;20126;-76
2023/10/02 15:07:14;;;;;;;43.08;24.50;;;;;;;18.86;100.00;99852.66;10229742;29;20088;-77
2023/10/02 15:12:14;;;;;;;48.70;26.45;;;;;;;18.86;100.00;99866.94;10235712;29;20130;-77
2023/10/02 15:17:15;;;;;;;45.50;26.95;;;;;;;18.51;100.00;99796.13;10247504;28;20517;-76
2023/10/02 15:22:16;;;;;;;39.72;21.52;;;;;;;18.40;100.00;99790.50;10247526;28;20051;-81
2023/10/02 15:27:17;;;;;;;56.95;25.08;;;;;;;18.75;100.00;99853.47;10245917;28;20113;-77
2023/10/02 15:32:20;;;;;;;46.17;23.25;;;;;;;18.75;100.00;99861.53;10242755;29;20122;-78
2023/10/02 15:37:21;;;;;;;69.77;33.37;;;;;;;18.51;100.00;99834.59;10245805;28;20503;-77
2023/10/02 15:42:22;;;;;;;76.13;33.90;;;;;;;18.70;100.00;99870.31;10246128;29;20287;-77
2023/10/02 15:47:23;;;;;;;60.97;30.38;;;;;;;17.72;100.00;99708.47;10246368;29;20043;-76
2023/10/02 15:52:25;;;;;;;74.80;38.97;;;;;;;18.65;100.00;99873.69;10243290;28;20043;-73
2023/10/02 15:57:26;;;;;;;90.57;43.78;;;;;;;18.60;100.00;99875.41;10245938;28;20418;-76
2023/10/02 16:02:27;;;;;;;55.85;30.45;;;;;;;18.41;100.00;99848.63;10246685;29;20491;-73
2023/10/02 16:07:27;;;;;;;26.98;16.55;;;;;;;18.55;100.00;99886.06;10246515;29;20116;-75
2023/10/02 16:12:30;;;;;;;23.30;13.63;;;;;;;18.41;100.00;99872.00;10243272;29;20075;-74
2023/10/02 16:17:30;;;;;;;16.67;11.07;;;;;;;17.69;100.00;99768.00;10245251;29;20142;-75
2023/10/02 16:22:35;;;;;;;22.67;10.90;;;;;;;18.25;100.00;99877.00;10245396;29;20146;-75
2023/10/02 16:27:41;;;;;;;25.85;9.52;;;;;;;18.22;100.00;99874.78;10242492;29;20063;-75
2023/10/02 16:32:44;;;;;;;18.85;9.77;;;;;;;18.29;100.00;99893.50;10246423;28;20054;-75
2023/10/02 16:37:46;;;;;;;14.13;8.80;;;;;;;18.26;100.00;99902.00;10238099;28;20039;-75
2023/10/02 16:42:46;;;;;;;27.40;9.13;;;;;;;18.10;100.00;99883.81;10214002;28;20051;-74
2023/10/02 16:47:50;;;;;;;19.20;9.00;;;;;;;17.76;100.00;99840.44;10226311;29;20095;-78
2023/10/02 16:52:52;;;;;;;23.48;8.50;;;;;;;17.89;100.00;99863.66;10226072;29;20070;-81
2023/10/02 16:57:55;;;;;;;19.13;9.85;;;;;;;18.06;100.00;99896.91;10223616;28;20522;-78
2023/10/02 17:02:55;;;;;;;17.05;10.10;;;;;;;18.06;100.00;99912.22;10227304;28;20051;-80
2023/10/02 17:07:58;;;;;;;23.90;9.55;;;;;;;17.67;100.00;99855.25;10225928;29;20050;-79
2023/10/02 17:12:59;;;;;;;17.55;9.10;;;;;;;18.04;100.00;99917.84;10228115;28;20040;-78
2023/10/02 17:18:01;;;;;;;24.40;8.32;;;;;;;17.31;100.00;99814.78;10231748;29;20039;-78
2023/10/02 17:23:06;;;;;;;17.85;7.60;;;;;;;17.99;100.00;99920.38;10229889;29;20488;-78
2023/10/02 17:28:08;;;;;;;17.92;8.40;;;;;;;17.84;98.00;99898.47;10230009;28;20063;-80
2023/10/02 17:33:09;;;;;;;24.02;9.50;;;;;;;17.50;96.53;99842.44;10244202;29;20092;-80
2023/10/02 17:38:10;;;;;;;19.35;7.38;;;;;;;17.97;96.65;99917.09;10250146;29;20395;-80
2023/10/02 17:43:11;;;;;;;18.88;8.20;;;;;;;17.97;96.70;99928.66;10251235;28;20043;-80
2023/10/02 17:48:12;;;;;;;18.10;11.30;;;;;;;17.83;97.12;99916.47;10250826;29;20495;-81
2023/10/02 17:53:13;;;;;;;17.30;11.05;;;;;;;17.66;97.86;99894.72;10249617;28;20043;-79
2023/10/02 17:58:14;;;;;;;18.15;9.07;;;;;;;17.82;97.01;99938.97;10248735;28;20111;-78
2023/10/02 18:03:16;;;;;;;16.75;7.90;;;;;;;17.73;96.26;99945.66;10249586;28;20050;-78
2023/10/02 18:08:17;;;;;;;21.40;8.95;;;;;;;17.68;96.42;99940.97;10249653;28;20082;-78
2023/10/02 18:13:19;;;;;;;28.27;9.48;;;;;;;17.67;96.63;99963.50;10249391;28;20403;-78
2023/10/02 18:18:21;;;;;;;18.73;9.65;;;;;;;17.30;96.80;99907.09;10249370;28;20062;-79
2023/10/02 18:23:22;;;;;;;20.15;9.02;;;;;;;17.58;96.45;99951.41;10248993;28;20035;-79
2023/10/02 18:28:23;;;;;;;18.20;9.43;;;;;;;17.38;95.93;99915.91;10249630;28;20055;-79
2023/10/02 18:33:24;;;;;;;26.23;12.60;;;;;;;17.67;94.30;99955.44;10248916;29;20043;-80
2023/10/02 18:38:25;;;;;;;18.77;8.32;;;;;;;17.57;91.87;99934.47;10247975;29;20043;-77
2023/10/02 18:43:26;;;;;;;13.20;8.13;;;;;;;17.64;89.68;99937.09;10245230;28;20105;-80
2023/10/02 18:48:27;;;;;;;27.90;9.65;;;;;;;17.68;89.21;99954.41;10248658;28;20051;-79
2023/10/02 18:53:31;;;;;;;20.95;8.75;;;;;;;17.73;88.32;99965.28;10248172;28;20126;-79
2023/10/02 18:58:32;;;;;;;;;;;;;;;17.82;86.58;99960.47;10247689;28;20055;-80
2023/10/02 19:03:33;;;;;;;12.40;7.80;;;;;;;17.52;88.45;99946.94;10247388;28;19922;-80
2023/10/02 19:08:33;;;;;;;17.30;8.50;;;;;;;17.23;88.60;99897.47;10247622;28;20035;-81
2023/10/02 19:13:34;;;;;;;14.57;8.52;;;;;;;17.28;89.30;99914.53;10248401;28;20138;-81
2023/10/02 19:18:35;;;;;;;15.55;8.52;;;;;;;17.34;90.69;99916.34;10247533;28;20065;-81
2023/10/02 19:23:36;;;;;;;13.07;8.10;;;;;;;17.59;91.23;99974.56;10246545;28;20066;-81
2023/10/02 19:28:39;;;;;;;28.05;8.88;;;;;;;17.48;92.10;99961.88;10247740;28;20520;-81
2023/10/02 19:33:40;;;;;;;15.00;8.10;;;;;;;17.07;91.34;99925.69;10246878;28;20077;-80
2023/10/02 19:38:42;;;;;;;14.48;7.53;;;;;;;16.88;90.44;99893.47;10246386;28;20071;-81
2023/10/02 19:43:43;;;;;;;18.67;6.85;;;;;;;17.45;88.84;99967.69;10245880;28;20092;-81
2023/10/02 19:48:44;;;;;;;22.08;6.82;;;;;;;17.09;88.40;99908.34;10245891;28;20039;-81
2023/10/02 19:53:45;;;;;;;15.82;6.00;;;;;;;17.13;89.26;99910.59;10246344;28;20054;-81
2023/10/02 19:58:46;;;;;;;33.78;6.43;;;;;;;17.56;90.20;99983.88;10244729;28;20407;-81
2023/10/02 20:03:47;;;;;;;13.43;6.25;;;;;;;16.94;91.29;99889.09;10245249;28;20141;-81
2023/10/02 20:08:47;;;;;;;18.92;7.43;;;;;;;16.99;93.15;99923.28;10237991;29;20127;-80
2023/10/02 20:13:49;;;;;;;12.43;7.22;;;;;;;16.92;94.73;99926.03;10246260;28;20043;-81
2023/10/02 20:18:50;;;;;;;16.02;7.40;;;;;;;16.52;96.09;99878.06;10244641;29;20054;-81
2023/10/02 20:23:51;;;;;;;24.05;8.40;;;;;;;16.94;97.85;99968.75;10243610;28;20046;-81
2023/10/02 20:28:52;;;;;;;11.13;7.15;;;;;;;16.72;99.22;99954.84;10246292;28;20643;-81
2023/10/02 20:33:53;;;;;;;15.32;7.53;;;;;;;16.85;100.00;99981.63;10245866;28;20100;-81
2023/10/02 20:38:53;;;;;;;15.75;7.95;;;;;;;16.82;100.00;99993.59;10245613;28;20142;-79
2023/10/02 20:43:54;;;;;;;23.60;7.78;;;;;;;16.41;100.00;99937.75;10248470;28;20050;-77
2023/10/02 20:48:55;;;;;;;18.70;7.80;;;;;;;16.69;100.00;99982.91;10252540;28;20495;-77
2023/10/02 20:53:55;;;;;;;10.65;7.38;;;;;;;16.25;100.00;99944.44;10251807;28;20043;-78
2023/10/02 20:59:00;;;;;;;13.73;6.80;;;;;;;16.56;100.00;100001.78;10251221;29;20053;-78
2023/10/02 21:04:00;;;;;;;14.55;7.55;;;;;;;16.43;100.00;99983.94;10251890;29;20055;-78
2023/10/02 21:09:02;;;;;;;21.58;7.75;;;;;;;16.40;100.00;99982.50;10251864;28;20062;-78
2023/10/02 21:14:03;;;;;;;19.33;7.45;;;;;;;16.19;100.00;99958.69;10251448;28;20039;-78
2023/10/02 21:19:04;;;;;;;25.33;7.45;;;;;;;16.32;100.00;99998.81;10250777;28;20406;-78
2023/10/02 21:24:05;;;;;;;14.30;6.65;;;;;;;16.39;100.00;100001.47;10251085;28;20043;-78
2023/10/02 21:29:06;;;;;;;11.63;7.05;;;;;;;16.10;100.00;99973.38;10251238;28;20093;-77
2023/10/02 21:34:07;;;;;;;13.63;7.28;;;;;;;16.20;100.00;100009.38;10250996;28;20096;-78
2023/10/02 21:39:11;;;;;;;10.98;7.07;;;;;;;16.14;100.00;99990.66;10249995;28;20092;-78
2023/10/02 21:44:12;;;;;;;15.35;6.88;;;;;;;16.13;100.00;99994.38;10250906;28;20388;-78
2023/10/02 21:49:13;;;;;;;11.07;7.65;;;;;;;16.25;100.00;100011.44;10249887;28;20043;-78
2023/10/02 21:54:14;;;;;;;14.00;7.80;;;;;;;16.40;100.00;100028.06;10249164;28;20047;-78
2023/10/02 21:59:15;;;;;;;14.75;7.53;;;;;;;16.14;100.00;99988.81;10250022;28;20130;-78
2023/10/02 22:04:15;;;;;;;22.90;8.23;;;;;;;16.38;100.00;100046.22;10249529;28;20130;-77
2023/10/02 22:09:17;;;;;;;16.92;7.32;;;;;;;16.38;100.00;100042.72;10249328;28;20043;-78
2023/10/02 22:14:19;;;;;;;11.57;7.20;;;;;;;16.25;100.00;100016.00;10249133;28;20043;-78
2023/10/02 22:19:20;;;;;;;12.00;7.47;;;;;;;16.40;100.00;100046.84;10249483;28;20509;-78
2023/10/02 22:24:20;;;;;;;15.23;7.55;;;;;;;16.38;100.00;100051.56;10249414;28;20060;-78
2023/10/02 22:29:22;;;;;;;10.20;7.53;;;;;;;16.23;100.00;100029.59;10249118;28;20096;-78
2023/10/02 22:34:24;;;;;;;18.13;8.32;;;;;;;16.38;100.00;100064.16;10248487;28;20054;-78
2023/10/02 22:39:26;;;;;;;16.67;8.32;;;;;;;16.30;100.00;100042.97;10249017;28;20043;-78
2023/10/02 22:44:27;;;;;;;19.33;9.02;;;;;;;16.28;100.00;100037.00;10248758;28;20047;-78
2023/10/02 22:49:28;;;;;;;16.52;8.57;;;;;;;16.42;100.00;100057.34;10248432;28;20515;-77
2023/10/02 22:54:29;;;;;;;14.15;9.05;;;;;;;16.01;100.00;99994.22;10247897;28;20492;-77
2023/10/02 22:59:29;;;;;;;9.63;8.10;;;;;;;16.00;100.00;99997.91;10247550;28;20043;-78
2023/10/02 23:04:30;;;;;;;13.10;8.82;;;;;;;16.32;100.00;100062.34;10247434;28;20043;-78
2023/10/02 23:09:34;;;;;;;15.25;9.38;;;;;;;16.36;100.00;100071.59;10247364;28;20507;-78
2023/10/02 23:14:35;;;;;;;;;;;;;;;16.52;100.00;100075.66;10248464;28;20043;-78
2023/10/02 23:19:40;;;;;;;17.15;8.98;;;;;;;16.39;100.00;100076.53;10247516;28;19940;-78
2023/10/02 23:24:41;;;;;;;12.07;8.93;;;;;;;16.41;100.00;100082.50;10246749;28;20518;-77
2023/10/02 23:29:42;;;;;;;13.52;9.77;;;;;;;16.31;100.00;100052.66;10247393;28;20039;-78
2023/10/02 23:34:42;;;;;;;17.23;9.65;;;;;;;16.46;100.00;100081.88;10246325;29;20687;-78
2023/10/02 23:39:43;;;;;;;14.35;9.75;;;;;;;16.28;100.00;100053.91;10246244;28;20133;-78
2023/10/02 23:44:45;;;;;;;16.45;10.75;;;;;;;15.98;100.00;100030.31;10247010;28;20046;-78
2023/10/02 23:49:47;;;;;;;14.20;9.90;;;;;;;16.35;100.00;100086.84;10246204;28;20457;-78
2023/10/02 23:54:58;;;;;;;17.10;10.77;;;;;;;16.34;100.00;100087.09;10246481;28;20454;-78